Time;durP1;ratioP1;P1;durP2;ratioP2;P2;SDS_P1;SDS_P2;PMS_P1;PMS_P2;Temp;Humidity;BMP_temperature;BMP_pressure;BME280_temperature;BME280_humidity;BME280_pressure;Samples;Min_cycle;Max_cycle;Signal;HPM_P1;HPM_P2
2024/03/23 00:02:08;;;;;;;8.43;4.17;;;14.10;99.90;;;;;;5042573;28;20547;-28
2024/03/23 00:04:35;;;;;;;9.30;4.30;;;14.10;99.90;;;;;;5042585;28;20432;-28
2024/03/23 00:07:04;;;;;;;9.10;3.60;;;14.10;99.90;;;;;;5061314;28;20454;-31
2024/03/23 00:09:31;;;;;;;8.13;3.83;;;14.10;99.90;;;;;;5061332;28;20472;-28
2024/03/23 00:11:58;;;;;;;8.07;4.60;;;14.10;99.90;;;;;;5043351;28;20472;-28
2024/03/23 00:14:30;;;;;;;8.40;4.20;;;14.10;99.90;;;;;;5060578;28;20935;-28
2024/03/23 00:16:57;;;;;;;12.30;5.10;;;14.10;99.90;;;;;;5060444;28;20438;-29
2024/03/23 00:19:23;;;;;;;8.70;4.27;;;14.00;99.90;;;;;;5042337;28;20426;-28
2024/03/23 00:21:55;;;;;;;11.87;4.27;;;14.10;99.90;;;;;;5061619;28;21004;-28
2024/03/23 00:24:24;;;;;;;9.50;4.53;;;14.00;99.90;;;;;;5061811;28;20535;-26
2024/03/23 00:26:51;;;;;;;9.50;3.97;;;14.00;99.90;;;;;;5060906;28;20429;-28
2024/03/23 00:29:19;;;;;;;6.60;3.83;;;14.00;99.90;;;;;;5042363;28;20442;-30
2024/03/23 00:31:46;;;;;;;8.70;3.37;;;14.00;99.90;;;;;;5060398;28;20515;-28
2024/03/23 00:34:13;;;;;;;7.40;3.80;;;14.00;99.90;;;;;;5061097;28;20434;-28
2024/03/23 00:36:40;;;;;;;7.07;3.73;;;14.00;99.90;;;;;;5042737;28;20422;-26
2024/03/23 00:39:09;;;;;;;7.80;4.07;;;14.00;99.90;;;;;;5042651;28;20418;-28
2024/03/23 00:41:39;;;;;;;9.47;4.40;;;14.00;99.90;;;;;;5045767;28;20422;-28
2024/03/23 00:44:06;;;;;;;11.60;4.23;;;14.00;99.90;;;;;;5064264;28;20437;-27
2024/03/23 00:46:36;;;;;;;6.43;4.30;;;14.00;99.90;;;;;;5064752;28;20425;-28
2024/03/23 00:49:03;;;;;;;9.63;3.30;;;14.00;99.90;;;;;;5029305;28;20421;-27
2024/03/23 00:51:30;;;;;;;9.60;3.50;;;14.00;99.90;;;;;;5046164;28;20465;-28
2024/03/23 00:53:55;;;;;;;11.43;4.00;;;14.00;99.90;;;;;;5029563;28;20960;-26
2024/03/23 00:56:25;;;;;;;7.60;3.30;;;14.00;99.90;;;;;;5046213;28;20537;-27
2024/03/23 00:58:51;;;;;;;6.57;3.20;;;14.00;99.90;;;;;;5045875;28;20204;-28
2024/03/23 01:01:17;;;;;;;5.20;3.20;;;13.90;99.90;;;;;;5045156;28;20963;-28
2024/03/23 01:03:43;;;;;;;8.03;3.13;;;13.90;99.90;;;;;;5045487;28;20428;-29
2024/03/23 01:06:09;;;;;;;7.33;3.60;;;14.00;99.90;;;;;;5064071;28;20442;-26
2024/03/23 01:08:35;;;;;;;8.83;3.60;;;13.90;99.90;;;;;;5064133;28;20430;-28
2024/03/23 01:11:02;;;;;;;8.77;3.27;;;13.90;99.90;;;;;;5046142;28;20469;-28
2024/03/23 01:13:31;;;;;;;5.80;2.90;;;13.90;99.90;;;;;;5045528;28;20458;-27
2024/03/23 01:15:57;;;;;;;5.50;2.97;;;13.90;99.90;;;;;;5045206;28;20418;-28
2024/03/23 01:18:26;;;;;;;8.47;3.10;;;13.90;99.90;;;;;;5029400;28;21069;-29
2024/03/23 01:20:52;;;;;;;12.03;3.40;;;13.90;99.90;;;;;;5045019;28;20446;-27
2024/03/23 01:23:18;;;;;;;10.83;3.53;;;13.80;99.90;;;;;;5063419;28;20478;-31
2024/03/23 01:25:52;;;;;;;10.30;3.80;;;13.90;99.90;;;;;;5045500;28;20441;-30
2024/03/23 01:28:18;;;;;;;9.33;3.23;;;13.90;99.90;;;;;;5063260;28;20507;-27
2024/03/23 01:30:44;;;;;;;10.00;2.93;;;13.90;99.90;;;;;;5044894;28;20466;-28
2024/03/23 01:33:10;;;;;;;5.60;2.70;;;13.80;99.90;;;;;;5043649;28;20453;-26
2024/03/23 01:35:35;;;;;;;4.93;2.40;;;13.80;99.90;;;;;;5044043;28;20414;-26
2024/03/23 01:38:01;;;;;;;5.33;2.43;;;13.80;99.90;;;;;;5044915;28;20983;-25
2024/03/23 01:40:31;;;;;;;8.57;3.37;;;13.80;99.90;;;;;;5062987;28;20496;-29
2024/03/23 01:43:05;;;;;;;7.20;2.70;;;13.80;99.90;;;;;;5045028;28;20527;-30
2024/03/23 01:45:32;;;;;;;5.33;2.97;;;13.80;99.90;;;;;;5063334;28;20446;-27
2024/03/23 01:48:01;;;;;;;4.03;2.30;;;13.80;99.90;;;;;;5029593;28;20536;-27
2024/03/23 01:50:30;;;;;;;6.77;2.33;;;13.80;99.90;;;;;;5045433;28;20947;-26
2024/03/23 01:52:57;;;;;;;6.47;2.60;;;13.80;99.90;;;;;;5062760;28;20429;-27
2024/03/23 01:55:23;;;;;;;4.90;2.30;;;13.80;99.90;;;;;;5028976;28;20462;-31
2024/03/23 01:57:52;;;;;;;8.30;3.07;;;13.70;99.90;;;;;;5045921;28;20461;-28
2024/03/23 02:00:23;;;;;;;10.60;2.43;;;13.70;99.90;;;;;;5064203;28;20863;-28
2024/03/23 02:02:49;;;;;;;6.47;2.50;;;13.70;99.90;;;;;;5063866;28;20849;-27
2024/03/23 02:05:15;;;;;;;6.63;2.77;;;13.70;99.90;;;;;;5062956;28;20423;-28
2024/03/23 02:07:42;;;;;;;9.80;3.17;;;13.70;99.90;;;;;;5062410;28;20509;-28
2024/03/23 02:10:10;;;;;;;6.37;2.43;;;13.70;99.90;;;;;;5062791;28;21050;-28
2024/03/23 02:12:36;;;;;;;6.60;2.40;;;13.70;99.90;;;;;;5064004;28;20424;-26
2024/03/23 02:15:03;;;;;;;5.37;2.73;;;13.70;99.90;;;;;;5063334;28;20441;-29
2024/03/23 02:17:36;;;;;;;4.40;2.00;;;13.70;99.90;;;;;;5045385;28;20445;-26
2024/03/23 02:20:06;;;;;;;5.73;3.33;;;13.70;99.90;;;;;;5063015;28;20426;-28
2024/03/23 02:22:40;;;;;;;5.40;2.60;;;13.70;99.90;;;;;;5063621;28;20414;-26
2024/03/23 02:25:07;;;;;;;3.63;2.10;;;13.70;99.90;;;;;;5028572;28;20433;-28
2024/03/23 02:27:38;;;;;;;5.47;2.20;;;13.60;99.90;;;;;;5043446;28;20433;-27
2024/03/23 02:30:05;;;;;;;3.80;2.10;;;13.60;99.90;;;;;;5043109;28;20462;-26
2024/03/23 02:32:31;;;;;;;5.00;2.70;;;13.60;99.90;;;;;;5061489;28;20505;-27
2024/03/23 02:34:57;;;;;;;5.03;2.23;;;13.60;99.90;;;;;;5043520;28;20900;-26
2024/03/23 02:37:23;;;;;;;3.80;2.10;;;13.60;99.90;;;;;;5062573;28;20430;-28
2024/03/23 02:39:50;;;;;;;3.90;2.40;;;13.60;99.90;;;;;;5061775;28;20215;-29
2024/03/23 02:42:17;;;;;;;3.47;2.33;;;13.60;99.90;;;;;;5042662;28;20848;-27
2024/03/23 02:44:44;;;;;;;5.90;2.20;;;13.60;99.90;;;;;;5061670;28;20494;-27
2024/03/23 02:47:10;;;;;;;7.80;2.50;;;13.60;99.90;;;;;;5061316;28;20426;-29
2024/03/23 02:49:39;;;;;;;4.37;2.40;;;13.60;99.90;;;;;;5062216;28;20561;-28
2024/03/23 02:52:05;;;;;;;3.80;2.23;;;13.60;99.90;;;;;;5044107;28;21091;-29
2024/03/23 02:54:31;;;;;;;4.40;2.40;;;13.50;99.90;;;;;;5062304;28;20410;-27
2024/03/23 02:56:57;;;;;;;5.57;2.03;;;13.50;99.90;;;;;;5044240;28;20437;-25
2024/03/23 02:59:26;;;;;;;4.97;2.20;;;13.50;99.90;;;;;;5062497;28;20562;-28
2024/03/23 03:01:51;;;;;;;6.70;2.70;;;13.50;99.90;;;;;;5062533;28;20426;-27
2024/03/23 03:04:19;;;;;;;5.13;2.03;;;13.50;99.90;;;;;;5061413;28;20939;-29
2024/03/23 03:06:47;;;;;;;7.57;1.77;;;13.50;99.90;;;;;;5046168;28;20195;-29
2024/03/23 03:09:13;;;;;;;5.70;2.50;;;13.50;99.90;;;;;;5047011;28;20399;-26
2024/03/23 03:11:45;;;;;;;5.53;1.90;;;13.50;99.90;;;;;;5066077;28;20452;-28
2024/03/23 03:14:14;;;;;;;5.47;2.13;;;13.50;99.90;;;;;;5048947;28;20421;-27
2024/03/23 03:16:40;;;;;;;4.30;2.30;;;13.50;99.90;;;;;;5047397;28;20417;-27
2024/03/23 03:19:06;;;;;;;7.60;2.23;;;13.50;99.90;;;;;;5064183;28;20438;-27
2024/03/23 03:21:32;;;;;;;5.03;2.40;;;13.50;99.90;;;;;;5063192;28;20426;-27
2024/03/23 03:24:01;;;;;;;3.63;2.07;;;13.40;99.90;;;;;;5043770;28;20438;-27
2024/03/23 03:26:27;;;;;;;4.10;2.10;;;13.40;99.90;;;;;;5043945;28;21086;-28
2024/03/23 03:28:53;;;;;;;3.00;1.90;;;13.40;99.90;;;;;;5053208;23;20538;-29
2024/03/23 03:31:19;;;;;;;5.47;1.80;;;13.40;99.90;;;;;;4992019;28;20475;-30
2024/03/23 03:33:45;;;;;;;4.93;2.33;;;13.40;99.90;;;;;;4997519;28;20430;-29
2024/03/23 03:36:13;;;;;;;4.67;2.20;;;13.40;99.90;;;;;;5019534;28;20423;-24
2024/03/23 03:38:40;;;;;;;1.87;1.70;;;13.40;99.90;;;;;;5018189;28;21046;-25
2024/03/23 03:41:08;;;;;;;3.13;1.90;;;13.40;99.90;;;;;;5006590;28;20479;-28
2024/03/23 03:43:36;;;;;;;5.43;2.10;;;13.40;99.90;;;;;;5030948;28;20435;-25
2024/03/23 03:46:03;;;;;;;3.57;1.73;;;13.40;99.90;;;;;;5017529;28;20435;-25
2024/03/23 03:48:29;;;;;;;6.33;2.17;;;13.40;99.90;;;;;;5037354;28;20961;-28
2024/03/23 03:50:55;;;;;;;4.13;1.87;;;13.40;99.90;;;;;;5020892;28;21408;-25
2024/03/23 03:53:21;;;;;;;5.13;2.50;;;13.30;99.90;;;;;;5022179;28;20843;-25
2024/03/23 03:55:47;;;;;;;7.30;1.97;;;13.30;99.90;;;;;;5018091;28;20484;-30
2024/03/23 03:58:17;;;;;;;6.77;2.63;;;13.30;99.90;;;;;;5028440;28;20443;-25
2024/03/23 04:00:48;;;;;;;5.47;1.90;;;13.30;99.90;;;;;;5030032;28;20437;-30
2024/03/23 04:03:14;;;;;;;2.60;1.73;;;13.30;99.90;;;;;;5005328;28;20462;-27
2024/03/23 04:05:40;;;;;;;4.53;1.90;;;13.30;99.90;;;;;;5030347;28;20804;-26
2024/03/23 04:08:12;;;;;;;7.50;1.90;;;13.30;99.90;;;;;;5012964;28;20814;-27
2024/03/23 04:10:43;;;;;;;4.50;1.47;;;13.30;99.90;;;;;;5014084;28;20475;-25
2024/03/23 04:13:09;;;;;;;3.00;1.73;;;13.30;99.90;;;;;;5006658;28;20477;-28
2024/03/23 04:15:35;;;;;;;7.83;2.23;;;13.30;99.90;;;;;;5019808;28;20429;-29
2024/03/23 04:18:01;;;;;;;4.80;1.70;;;13.20;99.90;;;;;;5037589;28;20856;-26
2024/03/23 04:20:27;;;;;;;4.00;1.70;;;13.20;99.90;;;;;;5003388;28;20423;-25
2024/03/23 04:22:53;;;;;;;4.73;1.70;;;13.20;99.90;;;;;;5021852;28;20542;-30
2024/03/23 04:25:19;;;;;;;7.23;2.43;;;13.20;99.90;;;;;;5007763;28;20204;-26
2024/03/23 04:27:46;;;;;;;4.23;2.17;;;13.20;99.90;;;;;;5017014;28;20520;-27
2024/03/23 04:30:15;;;;;;;3.57;1.93;;;13.20;99.90;;;;;;5030845;28;20738;-26
2024/03/23 04:32:41;;;;;;;2.43;1.40;;;13.20;99.90;;;;;;5036641;28;20934;-30
2024/03/23 04:35:12;;;;;;;4.07;1.57;;;13.20;99.90;;;;;;5012188;28;20767;-27
2024/03/23 04:37:41;;;;;;;4.67;1.93;;;13.20;99.90;;;;;;5003842;28;21014;-29
2024/03/23 04:40:11;;;;;;;4.83;1.80;;;13.10;99.90;;;;;;4990731;28;20961;-29
2024/03/23 04:42:39;;;;;;;3.90;1.60;;;13.10;99.80;;;;;;5005408;28;20434;-29
2024/03/23 04:45:06;;;;;;;4.97;1.93;;;13.10;99.80;;;;;;5011875;28;20470;-26
2024/03/23 04:47:32;;;;;;;4.40;1.80;;;13.10;99.70;;;;;;5026534;28;20546;-27
2024/03/23 04:49:59;;;;;;;3.77;1.90;;;13.10;99.80;;;;;;5007207;28;20470;-28
2024/03/23 04:52:25;;;;;;;5.17;1.87;;;13.10;99.80;;;;;;5034224;28;20427;-27
2024/03/23 04:54:51;;;;;;;3.17;1.83;;;13.10;99.80;;;;;;5030078;28;20777;-29
2024/03/23 04:57:17;;;;;;;4.37;2.03;;;13.10;99.70;;;;;;5013081;28;20951;-27
2024/03/23 04:59:50;;;;;;;2.43;1.67;;;13.10;99.80;;;;;;5037747;28;20987;-28
2024/03/23 05:02:16;;;;;;;4.73;2.20;;;13.10;99.90;;;;;;5032860;28;20481;-28
2024/03/23 05:04:44;;;;;;;4.43;2.37;;;13.00;99.80;;;;;;5007547;28;20834;-26
2024/03/23 05:07:11;;;;;;;8.33;3.13;;;13.00;99.80;;;;;;5005774;28;20435;-27
2024/03/23 05:09:37;;;;;;;2.83;1.60;;;13.00;99.80;;;;;;5006629;28;20437;-29
2024/03/23 05:12:03;;;;;;;2.07;1.70;;;13.00;99.80;;;;;;5010679;28;20431;-28
2024/03/23 05:14:30;;;;;;;8.97;2.30;;;13.00;99.70;;;;;;5032049;28;20417;-28
2024/03/23 05:17:00;;;;;;;5.03;2.07;;;13.00;99.70;;;;;;5028997;28;20457;-27
2024/03/23 05:19:26;;;;;;;4.87;2.20;;;12.90;99.70;;;;;;5030199;28;20446;-28
2024/03/23 05:21:54;;;;;;;3.13;1.97;;;13.00;99.90;;;;;;5016342;28;20938;-27
2024/03/23 05:24:22;;;;;;;5.83;2.37;;;13.00;99.90;;;;;;5027397;28;20200;-27
2024/03/23 05:26:53;;;;;;;8.57;2.70;;;12.90;99.70;;;;;;5020571;28;20497;-28
2024/03/23 05:29:19;;;;;;;4.40;1.90;;;12.90;99.80;;;;;;5027279;28;20511;-28
2024/03/23 05:31:49;;;;;;;5.30;2.53;;;12.90;99.90;;;;;;5027114;28;20992;-26
2024/03/23 05:34:18;;;;;;;4.70;2.10;;;12.90;99.90;;;;;;5032946;28;20188;-26
2024/03/23 05:36:46;;;;;;;4.03;2.37;;;12.90;99.90;;;;;;5009643;28;21097;-27
2024/03/23 05:39:17;;;;;;;6.77;2.73;;;12.90;99.90;;;;;;5024859;28;20517;-26
2024/03/23 05:41:44;;;;;;;7.83;2.63;;;12.90;99.80;;;;;;5031832;28;20442;-27
2024/03/23 05:44:14;;;;;;;4.20;2.40;;;12.90;99.80;;;;;;5013099;28;20460;-28
2024/03/23 05:46:41;;;;;;;3.57;2.63;;;12.90;99.80;;;;;;5017575;28;20429;-28
2024/03/23 05:49:10;;;;;;;4.90;2.33;;;12.90;99.80;;;;;;5010821;28;20427;-24
2024/03/23 05:51:40;;;;;;;4.50;2.17;;;12.90;99.80;;;;;;5032848;28;20809;-27
2024/03/23 05:54:08;;;;;;;4.70;2.27;;;12.80;99.70;;;;;;5032707;28;20447;-25
2024/03/23 05:56:34;;;;;;;4.70;2.40;;;12.80;99.80;;;;;;5012595;28;20440;-30
2024/03/23 05:59:03;;;;;;;8.03;2.37;;;12.80;99.80;;;;;;5035578;28;20536;-27
2024/03/23 06:01:32;;;;;;;5.67;2.40;;;12.80;99.80;;;;;;5035552;28;20430;-27
2024/03/23 06:04:01;;;;;;;6.77;2.80;;;12.80;99.80;;;;;;5031481;28;20435;-31
2024/03/23 06:06:30;;;;;;;6.20;3.17;;;12.80;99.80;;;;;;5029650;28;20455;-27
2024/03/23 06:08:56;;;;;;;5.63;2.60;;;12.80;99.90;;;;;;5038760;28;20462;-28
2024/03/23 06:11:22;;;;;;;3.70;2.30;;;12.80;99.90;;;;;;5013672;28;20918;-30
2024/03/23 06:13:48;;;;;;;5.10;2.10;;;12.80;99.90;;;;;;5018735;28;20844;-27
2024/03/23 06:16:14;;;;;;;5.33;2.73;;;12.80;99.90;;;;;;5013744;28;20427;-27
2024/03/23 06:18:40;;;;;;;3.97;2.07;;;12.80;99.80;;;;;;5028834;28;20204;-29
2024/03/23 06:21:13;;;;;;;4.73;2.50;;;12.70;99.80;;;;;;5023662;28;20441;-27
2024/03/23 06:23:40;;;;;;;5.17;2.40;;;12.70;99.80;;;;;;5019285;28;20437;-26
2024/03/23 06:26:06;;;;;;;3.60;2.30;;;12.70;99.80;;;;;;5025519;28;20879;-27
2024/03/23 06:28:32;;;;;;;5.07;2.67;;;12.70;99.80;;;;;;5022202;28;20463;-26
2024/03/23 06:30:58;;;;;;;7.33;3.30;;;12.70;99.70;;;;;;5020704;28;20562;-29
2024/03/23 06:33:25;;;;;;;5.10;3.03;;;12.70;99.70;;;;;;5030500;28;20488;-30
2024/03/23 06:35:54;;;;;;;7.20;3.20;;;12.70;99.70;;;;;;5003711;28;20891;-29
2024/03/23 06:38:21;;;;;;;5.87;2.70;;;12.70;99.70;;;;;;5026545;28;20456;-28
2024/03/23 06:40:52;;;;;;;5.97;2.57;;;12.70;99.70;;;;;;5010903;28;20969;-27
2024/03/23 06:43:18;;;;;;;6.67;2.93;;;12.70;99.70;;;;;;5038055;28;20415;-28
2024/03/23 06:46:01;;;;;;;6.23;3.07;;;12.60;99.70;;;;;;5033121;28;20430;-26
2024/03/23 06:48:28;;;;;;;7.43;4.20;;;12.60;99.70;;;;;;5000553;28;20451;-30
2024/03/23 06:50:57;;;;;;;5.30;3.10;;;12.60;99.70;;;;;;5027173;28;20619;-27
2024/03/23 06:53:24;;;;;;;8.00;3.47;;;12.60;99.70;;;;;;5033292;28;20427;-27
2024/03/23 06:55:52;;;;;;;4.90;2.83;;;12.60;99.70;;;;;;5028323;28;20867;-29
2024/03/23 06:58:23;;;;;;;7.33;3.23;;;12.60;99.70;;;;;;5021371;28;20511;-28
2024/03/23 07:00:49;;;;;;;7.47;3.20;;;12.60;99.70;;;;;;4981903;28;20432;-26
2024/03/23 07:03:16;;;;;;;8.90;3.40;;;12.60;99.80;;;;;;5029677;28;20427;-28
2024/03/23 07:05:43;;;;;;;5.20;3.10;;;12.60;99.80;;;;;;5015550;28;20446;-30
2024/03/23 07:08:09;;;;;;;6.83;2.70;;;12.60;99.80;;;;;;5021638;28;20447;-30
2024/03/23 07:10:35;;;;;;;6.10;3.10;;;12.60;99.80;;;;;;5003051;28;20572;-30
2024/03/23 07:13:03;;;;;;;8.13;3.70;;;12.50;99.80;;;;;;4986553;28;20424;-33
2024/03/23 07:15:29;;;;;;;5.80;3.87;;;12.50;99.70;;;;;;5019366;28;20423;-28
2024/03/23 07:17:55;;;;;;;6.47;3.30;;;12.50;99.70;;;;;;5019920;28;20440;-31
2024/03/23 07:20:21;;;;;;;6.37;3.50;;;12.50;99.70;;;;;;5019134;28;20420;-31
2024/03/23 07:22:47;;;;;;;6.03;2.97;;;12.50;99.70;;;;;;4984927;28;20461;-30
2024/03/23 07:25:13;;;;;;;5.27;3.00;;;12.50;99.70;;;;;;5018046;28;20424;-28
2024/03/23 07:27:40;;;;;;;12.10;3.97;;;12.50;99.70;;;;;;4982986;28;20463;-31
2024/03/23 07:30:08;;;;;;;8.80;3.73;;;12.50;99.70;;;;;;5000907;28;20468;-30
2024/03/23 07:32:35;;;;;;;4.50;3.33;;;12.50;99.80;;;;;;4983147;28;20836;-29
2024/03/23 07:35:01;;;;;;;7.20;3.50;;;12.50;99.70;;;;;;4983239;28;20497;-27
2024/03/23 07:37:29;;;;;;;6.13;3.47;;;12.50;99.70;;;;;;4999774;28;20481;-31
2024/03/23 07:39:54;;;;;;;12.63;4.43;;;12.50;99.70;;;;;;5002831;28;20419;-30
2024/03/23 07:42:20;;;;;;;13.63;5.73;;;12.50;99.70;;;;;;5020119;28;20476;-28
2024/03/23 07:44:49;;;;;;;10.17;4.37;;;12.50;99.60;;;;;;5019749;28;20424;-27
2024/03/23 07:47:15;;;;;;;17.13;5.70;;;12.40;98.90;;;;;;5002338;28;20717;-28
2024/03/23 07:49:41;;;;;;;9.97;5.03;;;12.40;99.20;;;;;;5020130;28;20478;-31
2024/03/23 07:52:08;;;;;;;10.50;4.83;;;12.30;99.60;;;;;;5020668;28;20910;-28
2024/03/23 07:54:34;;;;;;;10.87;4.23;;;12.30;99.90;;;;;;5002842;28;20435;-27
2024/03/23 07:57:07;;;;;;;9.23;3.93;;;12.20;99.90;;;;;;5003887;28;20501;-33
2024/03/23 07:59:33;;;;;;;14.20;4.17;;;12.20;99.90;;;;;;5020061;28;20420;-29
2024/03/23 08:02:03;;;;;;;11.73;3.87;;;12.20;99.90;;;;;;4988305;28;20432;-29
2024/03/23 08:04:30;;;;;;;12.03;5.20;;;12.30;99.90;;;;;;5022897;28;20432;-31
2024/03/23 08:06:56;;;;;;;8.60;3.87;;;12.30;99.90;;;;;;5002262;28;20438;-28
2024/03/23 08:09:22;;;;;;;10.77;3.50;;;12.30;99.90;;;;;;5018657;28;20423;-31
2024/03/23 08:11:48;;;;;;;8.43;3.50;;;12.30;99.90;;;;;;5018781;28;20483;-28
2024/03/23 08:14:14;;;;;;;7.23;3.70;;;12.30;99.90;;;;;;5007659;28;20832;-29
2024/03/23 08:16:41;;;;;;;6.90;3.70;;;12.30;99.90;;;;;;5021234;28;20477;-29
2024/03/23 08:19:08;;;;;;;5.53;3.30;;;12.30;99.90;;;;;;5004813;28;20450;-30
2024/03/23 08:21:34;;;;;;;8.13;3.87;;;12.30;99.90;;;;;;5019740;28;20440;-28
2024/03/23 08:24:00;;;;;;;6.20;3.40;;;12.30;99.90;;;;;;5035129;28;20473;-28
2024/03/23 08:26:26;;;;;;;7.00;3.67;;;12.30;99.90;;;;;;5019500;28;20420;-28
2024/03/23 08:28:54;;;;;;;12.83;3.77;;;12.30;99.90;;;;;;4984357;28;20456;-29
2024/03/23 08:31:20;;;;;;;5.30;3.37;;;12.30;99.90;;;;;;5000565;28;21105;-28
2024/03/23 08:33:47;;;;;;;7.30;3.33;;;12.30;99.80;;;;;;5018672;28;20852;-31
2024/03/23 08:36:14;;;;;;;11.87;3.97;;;12.30;99.80;;;;;;5019214;28;21036;-28
2024/03/23 08:38:40;;;;;;;11.83;3.60;;;12.40;99.70;;;;;;5018405;28;20447;-30
2024/03/23 08:41:10;;;;;;;6.70;3.57;;;12.40;99.70;;;;;;4999502;28;20911;-30
2024/03/23 08:43:39;;;;;;;7.50;3.50;;;12.40;99.60;;;;;;5017361;28;20907;-30
2024/03/23 08:46:08;;;;;;;8.80;2.87;;;12.30;99.40;;;;;;5001359;28;20435;-30
2024/03/23 08:48:43;;;;;;;5.17;2.97;;;12.40;99.40;;;;;;5018706;28;20473;-30
2024/03/23 08:51:11;;;;;;;6.57;2.80;;;12.30;99.30;;;;;;5018607;28;20538;-27
2024/03/23 08:53:38;;;;;;;7.43;2.87;;;12.40;99.30;;;;;;5001170;28;20459;-29
2024/03/23 08:56:07;;;;;;;2.50;2.20;;;12.40;99.30;;;;;;5000790;28;21001;-28
2024/03/23 08:58:40;;;;;;;3.30;2.00;;;12.30;99.10;;;;;;4969533;28;21012;-30
2024/03/23 09:01:07;;;;;;;5.23;2.40;;;12.30;99.20;;;;;;5007129;28;20435;-29
2024/03/23 09:03:35;;;;;;;6.63;2.73;;;12.30;99.20;;;;;;5008462;28;20517;-28
2024/03/23 09:06:02;;;;;;;8.23;2.50;;;12.30;99.20;;;;;;5009034;28;20465;-28
2024/03/23 09:08:28;;;;;;;4.53;2.20;;;12.30;99.20;;;;;;5023719;28;20443;-30
2024/03/23 09:10:54;;;;;;;2.50;1.63;;;12.40;99.30;;;;;;5042122;28;20466;-30
2024/03/23 09:13:22;;;;;;;4.37;2.20;;;12.30;99.30;;;;;;5017131;28;20944;-30
2024/03/23 09:15:50;;;;;;;3.83;1.97;;;12.30;99.30;;;;;;4987183;28;20535;-34
2024/03/23 09:18:17;;;;;;;4.47;2.57;;;12.30;99.30;;;;;;5021859;28;20530;-32
2024/03/23 09:20:45;;;;;;;4.80;1.83;;;12.30;99.40;;;;;;5004582;28;20495;-29
2024/03/23 09:23:12;;;;;;;5.03;2.20;;;12.30;99.40;;;;;;5003437;28;20550;-30
2024/03/23 09:25:40;;;;;;;3.63;1.90;;;12.30;99.40;;;;;;5004584;28;20493;-32
2024/03/23 09:28:10;;;;;;;3.00;2.23;;;12.30;99.40;;;;;;5022052;28;20436;-33
2024/03/23 09:30:41;;;;;;;6.37;2.50;;;12.30;99.40;;;;;;5021486;28;20587;-29
2024/03/23 09:33:11;;;;;;;9.00;4.10;;;12.30;99.30;;;;;;5011440;28;20890;-29
2024/03/23 09:35:42;;;;;;;6.70;3.50;;;12.20;98.80;;;;;;5007526;28;20427;-28
2024/03/23 09:38:09;;;;;;;10.40;4.13;;;12.10;98.30;;;;;;5015175;28;20736;-29
2024/03/23 09:40:44;;;;;;;8.30;4.03;;;12.00;98.10;;;;;;5001017;28;20477;-30
2024/03/23 09:43:13;;;;;;;11.23;3.40;;;11.90;98.30;;;;;;4989810;28;20463;-28
2024/03/23 09:45:42;;;;;;;6.70;3.53;;;11.80;98.50;;;;;;5002251;28;20827;-29
2024/03/23 09:48:12;;;;;;;9.70;3.90;;;11.40;97.70;;;;;;5004829;28;20520;-27
2024/03/23 09:50:48;;;;;;;8.30;4.50;;;11.20;99.50;;;;;;5004815;28;20464;-30
2024/03/23 09:53:15;;;;;;;11.77;3.43;;;10.90;99.70;;;;;;5000509;28;20435;-29
2024/03/23 09:55:43;;;;;;;6.83;3.20;;;10.80;99.60;;;;;;5005673;28;20460;-29
2024/03/23 09:58:13;;;;;;;5.77;3.03;;;10.80;99.20;;;;;;5028627;28;20841;-27
2024/03/23 10:00:41;;;;;;;8.40;4.10;;;10.80;98.60;;;;;;5025878;28;20803;-29
2024/03/23 10:03:08;;;;;;;5.80;3.50;;;10.80;99.90;;;;;;5027398;28;20968;-30
2024/03/23 10:05:34;;;;;;;5.80;2.33;;;10.70;99.90;;;;;;5030641;28;21341;-28
2024/03/23 10:08:17;;;;;;;3.97;3.07;;;10.50;98.50;;;;;;5029699;28;20497;-28
2024/03/23 10:10:44;;;;;;;9.03;3.10;;;10.50;97.10;;;;;;5027098;28;20469;-29
2024/03/23 10:13:12;;;;;;;13.57;3.30;;;10.40;98.00;;;;;;5024310;28;20512;-27
2024/03/23 10:15:41;;;;;;;8.70;2.57;;;10.30;97.50;;;;;;5026802;28;20535;-28
2024/03/23 10:18:15;;;;;;;8.63;2.87;;;10.40;98.20;;;;;;4997316;28;20508;-28
2024/03/23 10:20:46;;;;;;;4.50;2.63;;;10.40;97.80;;;;;;5029333;28;20541;-28
2024/03/23 10:23:18;;;;;;;11.73;3.17;;;10.50;97.70;;;;;;5009964;28;20448;-29
2024/03/23 10:25:45;;;;;;;8.73;2.50;;;10.40;97.10;;;;;;5031786;28;20431;-28
2024/03/23 10:28:11;;;;;;;6.20;3.20;;;10.60;97.60;;;;;;4991276;28;20490;-28
2024/03/23 10:30:37;;;;;;;4.27;2.20;;;10.50;96.40;;;;;;5022981;28;21185;-28
2024/03/23 10:33:11;;;;;;;7.20;2.17;;;10.40;95.90;;;;;;5002722;28;20439;-28
2024/03/23 10:35:38;;;;;;;5.70;2.17;;;10.20;95.70;;;;;;5010129;28;20435;-28
2024/03/23 10:38:10;;;;;;;3.73;1.90;;;10.20;95.40;;;;;;5006111;28;21167;-28
2024/03/23 10:40:37;;;;;;;4.90;1.90;;;10.10;95.70;;;;;;5031560;28;20905;-28
2024/03/23 10:43:08;;;;;;;5.20;1.43;;;10.00;96.00;;;;;;4994951;28;20453;-29
2024/03/23 10:45:34;;;;;;;6.57;2.40;;;10.00;94.80;;;;;;5023690;28;20424;-27
2024/03/23 10:48:00;;;;;;;4.43;1.90;;;9.80;95.90;;;;;;5007490;28;20454;-28
2024/03/23 10:50:28;;;;;;;4.50;1.53;;;9.70;96.40;;;;;;4999428;28;20476;-28
2024/03/23 10:52:55;;;;;;;3.03;1.23;;;9.70;96.40;;;;;;4980754;28;20459;-28
2024/03/23 10:55:23;;;;;;;1.53;1.40;;;9.70;95.80;;;;;;5016767;28;20965;-29
2024/03/23 10:57:54;;;;;;;3.17;1.20;;;9.70;95.70;;;;;;5002599;28;20578;-28
2024/03/23 11:00:23;;;;;;;2.00;1.03;;;9.60;95.40;;;;;;5033291;28;20416;-28
2024/03/23 11:02:50;;;;;;;2.27;0.90;;;9.60;95.40;;;;;;5020977;28;21011;-28
2024/03/23 11:05:28;;;;;;;1.90;1.20;;;9.70;96.10;;;;;;5035191;28;20470;-28
2024/03/23 11:07:54;;;;;;;2.93;1.30;;;9.70;96.60;;;;;;5006573;28;20516;-28
2024/03/23 11:10:30;;;;;;;1.27;0.80;;;9.80;96.60;;;;;;5031058;28;20469;-31
2024/03/23 11:12:57;;;;;;;4.00;1.37;;;10.00;96.10;;;;;;5010215;28;20446;-28
2024/03/23 11:15:23;;;;;;;2.27;1.00;;;10.00;95.80;;;;;;5021803;28;20430;-29
2024/03/23 11:18:07;;;;;;;0.80;0.80;;;10.10;95.70;;;;;;4999522;28;20810;-30
2024/03/23 11:20:35;;;;;;;2.13;1.20;;;10.10;95.10;;;;;;4991389;28;20431;-28
2024/03/23 11:23:01;;;;;;;1.93;1.23;;;10.20;94.40;;;;;;5031694;28;20449;-27
2024/03/23 11:25:30;;;;;;;4.80;1.60;;;10.20;94.00;;;;;;4996397;28;20461;-30
2024/03/23 11:28:15;;;;;;;2.63;1.50;;;10.30;93.20;;;;;;5008305;28;20527;-28
2024/03/23 11:30:42;;;;;;;3.20;1.50;;;10.30;93.70;;;;;;5020129;28;20472;-29
2024/03/23 11:33:09;;;;;;;5.30;1.83;;;10.20;93.80;;;;;;5022993;28;20488;-30
2024/03/23 11:35:41;;;;;;;6.07;1.67;;;10.20;95.10;;;;;;5004947;28;20431;-28
2024/03/23 11:38:17;;;;;;;3.07;1.80;;;10.30;94.60;;;;;;5031044;28;21412;-28
2024/03/23 11:40:45;;;;;;;8.80;2.10;;;10.40;95.00;;;;;;5032320;28;20461;-28
2024/03/23 11:43:16;;;;;;;5.50;2.10;;;10.40;95.00;;;;;;5003879;28;20438;-27
2024/03/23 11:45:42;;;;;;;6.20;2.47;;;10.50;94.70;;;;;;5007191;28;20451;-30
2024/03/23 11:48:19;;;;;;;3.20;2.10;;;10.50;94.50;;;;;;5034580;28;20466;-29
2024/03/23 11:50:48;;;;;;;4.20;1.70;;;10.50;94.60;;;;;;5007951;28;20521;-29
2024/03/23 11:53:18;;;;;;;5.20;1.90;;;10.50;95.20;;;;;;5023888;28;20442;-28
2024/03/23 11:55:58;;;;;;;4.30;1.70;;;10.50;96.10;;;;;;5004542;28;20427;-30
2024/03/23 11:58:26;;;;;;;6.30;1.90;;;10.60;96.90;;;;;;5002521;28;20454;-28
2024/03/23 12:00:57;;;;;;;3.47;1.50;;;10.80;96.80;;;;;;5021055;28;21275;-30
2024/03/23 12:03:32;;;;;;;7.30;1.80;;;10.90;96.80;;;;;;4988126;28;20513;-29
2024/03/23 12:06:01;;;;;;;2.97;1.43;;;11.00;96.90;;;;;;5010270;28;20949;-27
2024/03/23 12:08:35;;;;;;;4.17;1.33;;;11.10;96.80;;;;;;5001508;28;20470;-28
2024/03/23 12:11:14;;;;;;;3.60;1.60;;;11.20;96.70;;;;;;4996753;28;20591;-34
2024/03/23 12:13:43;;;;;;;1.70;1.30;;;11.30;96.70;;;;;;4997045;28;21061;-30
2024/03/23 12:16:20;;;;;;;2.70;1.30;;;11.30;96.60;;;;;;5022063;28;20520;-28
2024/03/23 12:18:49;;;;;;;5.40;1.30;;;11.40;96.60;;;;;;5028120;28;20589;-30
2024/03/23 12:21:16;;;;;;;2.53;1.40;;;11.40;96.90;;;;;;5020474;28;21142;-30
2024/03/23 12:23:44;;;;;;;1.80;1.50;;;11.50;96.50;;;;;;5009392;28;20446;-30
2024/03/23 12:26:11;;;;;;;2.47;1.30;;;11.50;96.50;;;;;;5001854;28;20451;-28
2024/03/23 12:28:38;;;;;;;2.90;1.33;;;11.60;96.50;;;;;;4989766;28;20836;-27
2024/03/23 12:31:07;;;;;;;1.90;1.30;;;11.60;96.50;;;;;;5020414;28;21132;-33
2024/03/23 12:33:33;;;;;;;2.13;1.20;;;11.70;96.50;;;;;;4994431;28;20462;-28
2024/03/23 12:35:59;;;;;;;3.00;1.23;;;11.70;96.40;;;;;;5024396;28;20472;-30
2024/03/23 12:38:25;;;;;;;2.10;1.30;;;11.70;96.40;;;;;;5030844;28;21228;-27
2024/03/23 12:40:51;;;;;;;2.60;1.40;;;11.80;96.40;;;;;;5029447;28;20521;-29
2024/03/23 12:43:18;;;;;;;3.00;1.63;;;11.80;96.40;;;;;;5023405;28;20423;-28
2024/03/23 12:45:48;;;;;;;2.83;1.30;;;11.80;96.30;;;;;;5013611;28;20426;-27
2024/03/23 12:48:18;;;;;;;2.50;1.83;;;11.80;96.20;;;;;;5037256;28;21038;-29
2024/03/23 12:50:46;;;;;;;3.90;1.70;;;11.80;96.10;;;;;;5003215;28;20591;-28